Terminal Aerodrome Forecast
Issued by NWS Nashville, TN

Home | Current Version | Previous Version | Text Only | Print | Product List | Glossary On
Versions: 1 2 3 4 5 6 7 8 9 10 11 12 13 14 15 16 17 18 19
545
FTUS44 KOHX 290520
TAFCSV
TAF
KCSV 290520Z 2906/3006 00000KT 3SM BR OVC002
      TEMPO 2908/2912 1SM BR VV001
     FM291300 25003KT 4SM BR SCT007 OVC015
     FM291600 25006KT P6SM SCT015 BKN035=

USA.gov is the U.S. government's official web portal to all federal, state and local government web resources and services.